sensor_id;sensor_type;location;lat;lon;timestamp;temperature;humidity
17240;DHT22;9943;54.378;18.604;2022-12-07T00:00:46;3.50;99.90
17240;DHT22;9943;54.378;18.604;2022-12-07T00:03:18;3.50;99.90
17240;DHT22;9943;54.378;18.604;2022-12-07T00:05:49;3.60;99.90
17240;DHT22;9943;54.378;18.604;2022-12-07T00:08:19;3.50;99.90
17240;DHT22;9943;54.378;18.604;2022-12-07T00:10:49;3.50;99.90
17240;DHT22;9943;54.378;18.604;2022-12-07T00:13:20;3.50;99.90
17240;DHT22;9943;54.378;18.604;2022-12-07T00:15:50;3.60;99.90
17240;DHT22;9943;54.378;18.604;2022-12-07T00:18:18;3.50;99.90
17240;DHT22;9943;54.378;18.604;2022-12-07T00:20:48;3.60;99.90
17240;DHT22;9943;54.378;18.604;2022-12-07T00:23:16;3.50;99.90
17240;DHT22;9943;54.378;18.604;2022-12-07T00:25:45;3.70;99.90
17240;DHT22;9943;54.378;18.604;2022-12-07T00:28:14;3.70;99.90
17240;DHT22;9943;54.378;18.604;2022-12-07T00:30:43;3.70;99.90
17240;DHT22;9943;54.378;18.604;2022-12-07T00:33:19;3.70;99.90
17240;DHT22;9943;54.378;18.604;2022-12-07T00:35:55;3.70;99.90
17240;DHT22;9943;54.378;18.604;2022-12-07T00:38:24;3.70;99.90
17240;DHT22;9943;54.378;18.604;2022-12-07T00:40:58;3.80;99.90
17240;DHT22;9943;54.378;18.604;2022-12-07T00:43:30;3.80;99.90
17240;DHT22;9943;54.378;18.604;2022-12-07T00:45:59;3.80;99.90
17240;DHT22;9943;54.378;18.604;2022-12-07T00:48:31;3.90;99.90
17240;DHT22;9943;54.378;18.604;2022-12-07T00:51:02;3.80;99.90
17240;DHT22;9943;54.378;18.604;2022-12-07T00:53:34;3.80;99.90
17240;DHT22;9943;54.378;18.604;2022-12-07T00:56:05;3.90;99.90
17240;DHT22;9943;54.378;18.604;2022-12-07T00:58:33;3.80;99.90
17240;DHT22;9943;54.378;18.604;2022-12-07T01:01:02;3.80;99.90
17240;DHT22;9943;54.378;18.604;2022-12-07T01:03:36;3.80;99.90
17240;DHT22;9943;54.378;18.604;2022-12-07T01:06:14;3.80;99.90
17240;DHT22;9943;54.378;18.604;2022-12-07T01:08:45;3.80;99.90
17240;DHT22;9943;54.378;18.604;2022-12-07T01:11:14;3.90;99.90
17240;DHT22;9943;54.378;18.604;2022-12-07T01:13:43;3.90;99.90
17240;DHT22;9943;54.378;18.604;2022-12-07T01:16:14;3.90;99.90
17240;DHT22;9943;54.378;18.604;2022-12-07T01:18:47;3.90;99.90
17240;DHT22;9943;54.378;18.604;2022-12-07T01:21:17;3.90;99.90
17240;DHT22;9943;54.378;18.604;2022-12-07T01:23:47;4.00;99.90
17240;DHT22;9943;54.378;18.604;2022-12-07T01:26:17;4.10;99.90
17240;DHT22;9943;54.378;18.604;2022-12-07T01:28:45;3.90;99.90
17240;DHT22;9943;54.378;18.604;2022-12-07T01:31:17;3.80;99.90
17240;DHT22;9943;54.378;18.604;2022-12-07T01:33:47;3.80;99.90
17240;DHT22;9943;54.378;18.604;2022-12-07T01:36:18;3.80;99.90
17240;DHT22;9943;54.378;18.604;2022-12-07T01:38:48;3.70;99.90
17240;DHT22;9943;54.378;18.604;2022-12-07T01:41:19;3.80;99.90
17240;DHT22;9943;54.378;18.604;2022-12-07T01:44:13;3.80;99.90
17240;DHT22;9943;54.378;18.604;2022-12-07T01:46:45;3.90;99.90
17240;DHT22;9943;54.378;18.604;2022-12-07T01:49:20;3.90;99.90
17240;DHT22;9943;54.378;18.604;2022-12-07T01:51:49;3.90;99.90
17240;DHT22;9943;54.378;18.604;2022-12-07T01:54:20;3.90;99.90
17240;DHT22;9943;54.378;18.604;2022-12-07T01:56:51;4.00;99.90
17240;DHT22;9943;54.378;18.604;2022-12-07T01:59:24;3.90;99.90
17240;DHT22;9943;54.378;18.604;2022-12-07T02:02:02;4.00;99.90
17240;DHT22;9943;54.378;18.604;2022-12-07T02:04:33;4.10;99.90
17240;DHT22;9943;54.378;18.604;2022-12-07T02:07:04;4.00;99.90
17240;DHT22;9943;54.378;18.604;2022-12-07T02:09:34;4.00;99.90
17240;DHT22;9943;54.378;18.604;2022-12-07T02:12:05;4.10;99.90
17240;DHT22;9943;54.378;18.604;2022-12-07T02:14:36;4.10;99.90
17240;DHT22;9943;54.378;18.604;2022-12-07T02:17:10;4.00;99.90
17240;DHT22;9943;54.378;18.604;2022-12-07T02:20:06;4.00;99.90
17240;DHT22;9943;54.378;18.604;2022-12-07T02:23:23;3.80;99.90
17240;DHT22;9943;54.378;18.604;2022-12-07T02:26:21;3.80;99.90
17240;DHT22;9943;54.378;18.604;2022-12-07T02:29:11;3.80;99.90
17240;DHT22;9943;54.378;18.604;2022-12-07T02:31:45;3.80;99.90
17240;DHT22;9943;54.378;18.604;2022-12-07T02:34:21;3.80;99.90
17240;DHT22;9943;54.378;18.604;2022-12-07T02:36:55;3.80;99.90
17240;DHT22;9943;54.378;18.604;2022-12-07T02:39:37;3.80;99.90
17240;DHT22;9943;54.378;18.604;2022-12-07T02:42:15;3.80;99.90
17240;DHT22;9943;54.378;18.604;2022-12-07T02:44:48;3.80;99.90
17240;DHT22;9943;54.378;18.604;2022-12-07T02:47:20;3.80;99.90
17240;DHT22;9943;54.378;18.604;2022-12-07T02:49:53;3.80;99.90
17240;DHT22;9943;54.378;18.604;2022-12-07T02:52:21;3.90;99.90
17240;DHT22;9943;54.378;18.604;2022-12-07T02:54:50;4.00;99.90
17240;DHT22;9943;54.378;18.604;2022-12-07T02:57:41;3.90;99.90
17240;DHT22;9943;54.378;18.604;2022-12-07T03:00:15;4.00;99.90
17240;DHT22;9943;54.378;18.604;2022-12-07T03:02:52;4.00;99.90
17240;DHT22;9943;54.378;18.604;2022-12-07T03:05:31;4.00;99.90
17240;DHT22;9943;54.378;18.604;2022-12-07T03:08:11;4.00;99.90
17240;DHT22;9943;54.378;18.604;2022-12-07T03:10:49;4.00;99.90
17240;DHT22;9943;54.378;18.604;2022-12-07T03:13:25;4.10;99.90
17240;DHT22;9943;54.378;18.604;2022-12-07T03:16:02;4.00;99.90
17240;DHT22;9943;54.378;18.604;2022-12-07T03:18:38;4.00;99.90
17240;DHT22;9943;54.378;18.604;2022-12-07T03:21:18;4.00;99.90
17240;DHT22;9943;54.378;18.604;2022-12-07T03:23:51;4.10;99.90
17240;DHT22;9943;54.378;18.604;2022-12-07T03:26:28;4.00;99.90
17240;DHT22;9943;54.378;18.604;2022-12-07T03:29:02;4.00;99.90
17240;DHT22;9943;54.378;18.604;2022-12-07T03:31:43;3.90;99.90
17240;DHT22;9943;54.378;18.604;2022-12-07T03:34:51;3.90;99.90
17240;DHT22;9943;54.378;18.604;2022-12-07T03:37:48;4.30;99.90
17240;DHT22;9943;54.378;18.604;2022-12-07T03:40:41;3.50;99.90
17240;DHT22;9943;54.378;18.604;2022-12-07T03:43:14;3.90;99.90
17240;DHT22;9943;54.378;18.604;2022-12-07T03:45:56;3.90;99.90
17240;DHT22;9943;54.378;18.604;2022-12-07T03:48:34;3.90;99.90
17240;DHT22;9943;54.378;18.604;2022-12-07T03:51:16;4.00;99.90
17240;DHT22;9943;54.378;18.604;2022-12-07T03:53:48;3.90;99.90
17240;DHT22;9943;54.378;18.604;2022-12-07T03:56:18;4.00;99.90
17240;DHT22;9943;54.378;18.604;2022-12-07T03:58:48;3.90;99.90
17240;DHT22;9943;54.378;18.604;2022-12-07T04:01:19;4.10;99.90
17240;DHT22;9943;54.378;18.604;2022-12-07T04:03:49;4.00;99.90
17240;DHT22;9943;54.378;18.604;2022-12-07T04:06:17;4.00;99.90
17240;DHT22;9943;54.378;18.604;2022-12-07T04:08:45;4.00;99.90
17240;DHT22;9943;54.378;18.604;2022-12-07T04:11:13;4.00;99.90
17240;DHT22;9943;54.378;18.604;2022-12-07T04:13:43;4.00;99.90
17240;DHT22;9943;54.378;18.604;2022-12-07T04:16:30;4.00;99.90
17240;DHT22;9943;54.378;18.604;2022-12-07T04:19:03;4.10;99.90
17240;DHT22;9943;54.378;18.604;2022-12-07T04:21:34;4.00;99.90
17240;DHT22;9943;54.378;18.604;2022-12-07T04:24:03;4.00;99.90
17240;DHT22;9943;54.378;18.604;2022-12-07T04:26:35;2.40;99.90
17240;DHT22;9943;54.378;18.604;2022-12-07T04:29:04;4.00;99.90
17240;DHT22;9943;54.378;18.604;2022-12-07T04:31:34;4.00;99.90
17240;DHT22;9943;54.378;18.604;2022-12-07T04:34:07;4.00;99.90
17240;DHT22;9943;54.378;18.604;2022-12-07T04:36:36;4.00;99.90
17240;DHT22;9943;54.378;18.604;2022-12-07T04:39:07;4.00;99.90
17240;DHT22;9943;54.378;18.604;2022-12-07T04:41:36;4.00;99.90
17240;DHT22;9943;54.378;18.604;2022-12-07T04:44:05;4.00;99.90
17240;DHT22;9943;54.378;18.604;2022-12-07T04:46:37;3.90;99.90
17240;DHT22;9943;54.378;18.604;2022-12-07T04:49:10;4.00;99.90
17240;DHT22;9943;54.378;18.604;2022-12-07T04:51:39;4.00;99.90
17240;DHT22;9943;54.378;18.604;2022-12-07T04:54:17;4.00;99.90
17240;DHT22;9943;54.378;18.604;2022-12-07T04:56:46;4.10;99.90
17240;DHT22;9943;54.378;18.604;2022-12-07T04:59:15;4.10;99.90
17240;DHT22;9943;54.378;18.604;2022-12-07T05:01:43;4.10;99.90
17240;DHT22;9943;54.378;18.604;2022-12-07T05:04:14;4.20;99.90
17240;DHT22;9943;54.378;18.604;2022-12-07T05:06:47;4.10;99.90
17240;DHT22;9943;54.378;18.604;2022-12-07T05:09:15;4.20;99.90
17240;DHT22;9943;54.378;18.604;2022-12-07T05:11:43;4.10;99.90
17240;DHT22;9943;54.378;18.604;2022-12-07T05:14:15;4.20;99.90
17240;DHT22;9943;54.378;18.604;2022-12-07T05:16:47;4.10;99.90
17240;DHT22;9943;54.378;18.604;2022-12-07T05:19:18;4.10;99.90
17240;DHT22;9943;54.378;18.604;2022-12-07T05:21:47;4.20;99.90
17240;DHT22;9943;54.378;18.604;2022-12-07T05:24:16;4.10;99.90
17240;DHT22;9943;54.378;18.604;2022-12-07T05:26:45;4.10;99.90
17240;DHT22;9943;54.378;18.604;2022-12-07T05:29:16;4.20;99.90
17240;DHT22;9943;54.378;18.604;2022-12-07T05:31:46;4.20;99.90
17240;DHT22;9943;54.378;18.604;2022-12-07T05:34:25;4.20;99.90
17240;DHT22;9943;54.378;18.604;2022-12-07T05:36:57;4.20;99.90
17240;DHT22;9943;54.378;18.604;2022-12-07T05:39:25;4.20;99.90
17240;DHT22;9943;54.378;18.604;2022-12-07T05:41:56;4.10;99.90
17240;DHT22;9943;54.378;18.604;2022-12-07T05:44:46;4.10;99.90
17240;DHT22;9943;54.378;18.604;2022-12-07T05:47:16;4.10;99.90
17240;DHT22;9943;54.378;18.604;2022-12-07T05:49:50;4.10;99.90
17240;DHT22;9943;54.378;18.604;2022-12-07T05:52:19;4.20;99.90
17240;DHT22;9943;54.378;18.604;2022-12-07T05:54:47;4.20;99.90
17240;DHT22;9943;54.378;18.604;2022-12-07T05:57:18;4.30;99.90
17240;DHT22;9943;54.378;18.604;2022-12-07T05:59:48;4.20;99.90
17240;DHT22;9943;54.378;18.604;2022-12-07T06:02:18;4.30;99.90
17240;DHT22;9943;54.378;18.604;2022-12-07T06:04:51;4.30;99.90
17240;DHT22;9943;54.378;18.604;2022-12-07T06:07:21;4.40;99.90
17240;DHT22;9943;54.378;18.604;2022-12-07T06:10:16;4.40;99.90
17240;DHT22;9943;54.378;18.604;2022-12-07T06:12:45;4.40;99.90
17240;DHT22;9943;54.378;18.604;2022-12-07T06:15:15;4.30;99.90
17240;DHT22;9943;54.378;18.604;2022-12-07T06:17:45;4.40;99.90
17240;DHT22;9943;54.378;18.604;2022-12-07T06:20:16;4.40;99.90
17240;DHT22;9943;54.378;18.604;2022-12-07T06:22:47;4.40;99.90
17240;DHT22;9943;54.378;18.604;2022-12-07T06:25:22;4.40;99.90
17240;DHT22;9943;54.378;18.604;2022-12-07T06:28:00;4.40;99.90
17240;DHT22;9943;54.378;18.604;2022-12-07T06:30:30;4.40;99.90
17240;DHT22;9943;54.378;18.604;2022-12-07T06:32:58;4.30;99.90
17240;DHT22;9943;54.378;18.604;2022-12-07T06:35:27;4.30;99.90
17240;DHT22;9943;54.378;18.604;2022-12-07T06:37:57;4.30;99.90
17240;DHT22;9943;54.378;18.604;2022-12-07T06:40:26;4.30;99.90
17240;DHT22;9943;54.378;18.604;2022-12-07T06:42:57;4.30;99.90
17240;DHT22;9943;54.378;18.604;2022-12-07T06:45:26;4.30;99.90
17240;DHT22;9943;54.378;18.604;2022-12-07T06:48:00;4.20;99.90
17240;DHT22;9943;54.378;18.604;2022-12-07T06:50:36;4.30;99.90
17240;DHT22;9943;54.378;18.604;2022-12-07T06:53:04;4.20;99.90
17240;DHT22;9943;54.378;18.604;2022-12-07T06:55:37;4.20;99.90
17240;DHT22;9943;54.378;18.604;2022-12-07T06:58:08;4.20;99.90
17240;DHT22;9943;54.378;18.604;2022-12-07T07:00:36;4.20;99.90
17240;DHT22;9943;54.378;18.604;2022-12-07T07:03:08;4.10;99.90
17240;DHT22;9943;54.378;18.604;2022-12-07T07:05:39;4.00;99.90
17240;DHT22;9943;54.378;18.604;2022-12-07T07:08:09;4.10;99.90
17240;DHT22;9943;54.378;18.604;2022-12-07T07:10:40;4.00;99.90
17240;DHT22;9943;54.378;18.604;2022-12-07T07:13:09;4.10;99.90
17240;DHT22;9943;54.378;18.604;2022-12-07T07:15:41;4.00;99.90
17240;DHT22;9943;54.378;18.604;2022-12-07T07:18:33;4.10;99.90
17240;DHT22;9943;54.378;18.604;2022-12-07T07:21:10;4.00;99.90
17240;DHT22;9943;54.378;18.604;2022-12-07T07:23:40;3.90;99.90
17240;DHT22;9943;54.378;18.604;2022-12-07T07:26:13;4.00;99.90
17240;DHT22;9943;54.378;18.604;2022-12-07T07:28:48;4.00;99.90
17240;DHT22;9943;54.378;18.604;2022-12-07T07:31:20;4.00;99.90
17240;DHT22;9943;54.378;18.604;2022-12-07T07:33:51;4.00;99.90
17240;DHT22;9943;54.378;18.604;2022-12-07T07:36:47;4.00;99.90
17240;DHT22;9943;54.378;18.604;2022-12-07T07:39:20;4.00;99.90
17240;DHT22;9943;54.378;18.604;2022-12-07T07:41:52;4.00;99.90
17240;DHT22;9943;54.378;18.604;2022-12-07T07:44:22;4.10;99.90
17240;DHT22;9943;54.378;18.604;2022-12-07T07:46:50;4.00;99.90
17240;DHT22;9943;54.378;18.604;2022-12-07T07:49:19;4.10;99.90
17240;DHT22;9943;54.378;18.604;2022-12-07T07:51:47;4.10;99.90
17240;DHT22;9943;54.378;18.604;2022-12-07T07:54:16;4.00;99.90
17240;DHT22;9943;54.378;18.604;2022-12-07T07:56:48;4.20;99.90
17240;DHT22;9943;54.378;18.604;2022-12-07T07:59:22;4.10;99.90
17240;DHT22;9943;54.378;18.604;2022-12-07T08:01:52;4.10;99.90
17240;DHT22;9943;54.378;18.604;2022-12-07T08:04:21;4.20;99.90
17240;DHT22;9943;54.378;18.604;2022-12-07T08:06:50;4.20;99.90
17240;DHT22;9943;54.378;18.604;2022-12-07T08:09:19;4.30;99.90
17240;DHT22;9943;54.378;18.604;2022-12-07T08:11:48;4.40;99.90
17240;DHT22;9943;54.378;18.604;2022-12-07T08:14:16;3.70;99.90
17240;DHT22;9943;54.378;18.604;2022-12-07T08:16:52;4.40;99.90
17240;DHT22;9943;54.378;18.604;2022-12-07T08:19:21;4.60;99.90
17240;DHT22;9943;54.378;18.604;2022-12-07T08:21:49;4.60;99.90
17240;DHT22;9943;54.378;18.604;2022-12-07T08:24:25;4.60;99.90
17240;DHT22;9943;54.378;18.604;2022-12-07T08:26:56;4.80;99.90
17240;DHT22;9943;54.378;18.604;2022-12-07T08:29:24;4.70;99.90
17240;DHT22;9943;54.378;18.604;2022-12-07T08:31:55;4.80;99.90
17240;DHT22;9943;54.378;18.604;2022-12-07T08:34:31;4.90;99.90
17240;DHT22;9943;54.378;18.604;2022-12-07T08:36:59;5.00;99.90
17240;DHT22;9943;54.378;18.604;2022-12-07T08:39:30;4.90;99.90
17240;DHT22;9943;54.378;18.604;2022-12-07T08:42:00;4.80;99.90
17240;DHT22;9943;54.378;18.604;2022-12-07T08:44:30;4.70;99.90
17240;DHT22;9943;54.378;18.604;2022-12-07T08:47:24;4.70;99.90
17240;DHT22;9943;54.378;18.604;2022-12-07T08:49:54;4.60;99.90
17240;DHT22;9943;54.378;18.604;2022-12-07T08:52:26;4.60;99.90
17240;DHT22;9943;54.378;18.604;2022-12-07T08:55:00;4.60;99.90
17240;DHT22;9943;54.378;18.604;2022-12-07T08:57:32;4.60;99.90
17240;DHT22;9943;54.378;18.604;2022-12-07T09:00:04;4.70;99.90
17240;DHT22;9943;54.378;18.604;2022-12-07T09:02:36;4.70;99.90
17240;DHT22;9943;54.378;18.604;2022-12-07T09:05:07;4.70;99.90
17240;DHT22;9943;54.378;18.604;2022-12-07T09:07:37;4.60;99.90
17240;DHT22;9943;54.378;18.604;2022-12-07T09:10:09;4.50;99.90
17240;DHT22;9943;54.378;18.604;2022-12-07T09:12:39;4.40;99.90
17240;DHT22;9943;54.378;18.604;2022-12-07T09:15:09;4.50;99.90
17240;DHT22;9943;54.378;18.604;2022-12-07T09:17:43;4.40;99.90
17240;DHT22;9943;54.378;18.604;2022-12-07T09:20:18;4.70;99.90
17240;DHT22;9943;54.378;18.604;2022-12-07T09:22:47;4.30;99.90
17240;DHT22;9943;54.378;18.604;2022-12-07T09:25:17;4.40;99.90
17240;DHT22;9943;54.378;18.604;2022-12-07T09:27:47;4.40;99.90
17240;DHT22;9943;54.378;18.604;2022-12-07T09:30:15;4.30;99.90
17240;DHT22;9943;54.378;18.604;2022-12-07T09:32:48;4.40;99.90
17240;DHT22;9943;54.378;18.604;2022-12-07T09:35:18;4.30;99.90
17240;DHT22;9943;54.378;18.604;2022-12-07T09:37:50;4.30;99.90
17240;DHT22;9943;54.378;18.604;2022-12-07T09:40:22;4.40;99.90
17240;DHT22;9943;54.378;18.604;2022-12-07T09:42:53;4.40;99.90
17240;DHT22;9943;54.378;18.604;2022-12-07T09:45:24;4.30;99.90
17240;DHT22;9943;54.378;18.604;2022-12-07T09:47:55;4.40;99.90
17240;DHT22;9943;54.378;18.604;2022-12-07T09:50:28;4.40;99.90
17240;DHT22;9943;54.378;18.604;2022-12-07T09:53:06;4.40;99.90
17240;DHT22;9943;54.378;18.604;2022-12-07T09:55:41;4.40;99.90
17240;DHT22;9943;54.378;18.604;2022-12-07T09:58:20;4.40;99.90
17240;DHT22;9943;54.378;18.604;2022-12-07T10:00:53;4.20;99.90
17240;DHT22;9943;54.378;18.604;2022-12-07T10:03:27;4.40;99.90
17240;DHT22;9943;54.378;18.604;2022-12-07T10:05:57;4.40;99.90
17240;DHT22;9943;54.378;18.604;2022-12-07T10:08:25;4.50;99.90
17240;DHT22;9943;54.378;18.604;2022-12-07T10:10:56;4.40;99.90
17240;DHT22;9943;54.378;18.604;2022-12-07T10:13:35;4.50;99.90
17240;DHT22;9943;54.378;18.604;2022-12-07T10:16:06;4.60;99.90
17240;DHT22;9943;54.378;18.604;2022-12-07T10:18:53;4.60;99.90
17240;DHT22;9943;54.378;18.604;2022-12-07T10:21:22;4.50;99.90
17240;DHT22;9943;54.378;18.604;2022-12-07T10:24:01;4.60;99.90
17240;DHT22;9943;54.378;18.604;2022-12-07T10:26:38;4.40;99.90
17240;DHT22;9943;54.378;18.604;2022-12-07T10:29:16;4.40;99.90
17240;DHT22;9943;54.378;18.604;2022-12-07T10:31:54;4.60;99.90
17240;DHT22;9943;54.378;18.604;2022-12-07T10:34:28;4.50;99.90
17240;DHT22;9943;54.378;18.604;2022-12-07T10:37:15;4.70;99.90
17240;DHT22;9943;54.378;18.604;2022-12-07T10:40:18;4.60;99.90
17240;DHT22;9943;54.378;18.604;2022-12-07T10:43:04;4.70;99.90
17240;DHT22;9943;54.378;18.604;2022-12-07T10:45:41;4.70;99.90
17240;DHT22;9943;54.378;18.604;2022-12-07T10:48:15;4.60;99.90
17240;DHT22;9943;54.378;18.604;2022-12-07T10:50:55;4.40;99.90
17240;DHT22;9943;54.378;18.604;2022-12-07T10:53:33;4.20;99.90
17240;DHT22;9943;54.378;18.604;2022-12-07T10:56:25;4.70;99.90
17240;DHT22;9943;54.378;18.604;2022-12-07T10:59:11;4.40;99.90
17240;DHT22;9943;54.378;18.604;2022-12-07T11:01:48;4.60;99.90
17240;DHT22;9943;54.378;18.604;2022-12-07T11:04:27;4.40;99.90
17240;DHT22;9943;54.378;18.604;2022-12-07T11:07:08;4.50;99.90
17240;DHT22;9943;54.378;18.604;2022-12-07T11:09:52;4.60;99.90
17240;DHT22;9943;54.378;18.604;2022-12-07T11:12:34;4.10;99.90
17240;DHT22;9943;54.378;18.604;2022-12-07T11:15:13;4.40;99.90
17240;DHT22;9943;54.378;18.604;2022-12-07T11:17:49;4.30;99.90
17240;DHT22;9943;54.378;18.604;2022-12-07T11:20:33;4.10;99.90
17240;DHT22;9943;54.378;18.604;2022-12-07T11:23:13;4.00;99.90
17240;DHT22;9943;54.378;18.604;2022-12-07T11:25:50;4.00;99.90
17240;DHT22;9943;54.378;18.604;2022-12-07T11:28:36;4.40;99.90
17240;DHT22;9943;54.378;18.604;2022-12-07T11:31:13;4.10;99.90
17240;DHT22;9943;54.378;18.604;2022-12-07T11:33:46;4.40;99.90
17240;DHT22;9943;54.378;18.604;2022-12-07T11:36:31;4.30;99.90
17240;DHT22;9943;54.378;18.604;2022-12-07T11:39:04;4.40;99.90
17240;DHT22;9943;54.378;18.604;2022-12-07T11:41:40;4.40;99.90
17240;DHT22;9943;54.378;18.604;2022-12-07T11:44:25;4.40;99.90
17240;DHT22;9943;54.378;18.604;2022-12-07T11:47:01;4.40;99.90
17240;DHT22;9943;54.378;18.604;2022-12-07T11:49:43;4.00;99.90
17240;DHT22;9943;54.378;18.604;2022-12-07T11:52:18;4.10;99.90
17240;DHT22;9943;54.378;18.604;2022-12-07T11:54:52;4.30;99.90
17240;DHT22;9943;54.378;18.604;2022-12-07T11:57:28;4.10;99.90
17240;DHT22;9943;54.378;18.604;2022-12-07T12:00:05;4.00;99.90
17240;DHT22;9943;54.378;18.604;2022-12-07T12:02:41;4.50;99.90
17240;DHT22;9943;54.378;18.604;2022-12-07T12:05:16;3.90;99.90
17240;DHT22;9943;54.378;18.604;2022-12-07T12:07:51;3.90;99.90
17240;DHT22;9943;54.378;18.604;2022-12-07T12:10:29;3.80;99.90
17240;DHT22;9943;54.378;18.604;2022-12-07T12:19:21;3.80;99.90
17240;DHT22;9943;54.378;18.604;2022-12-07T12:21:56;3.90;99.90
17240;DHT22;9943;54.378;18.604;2022-12-07T12:24:27;3.80;99.90
17240;DHT22;9943;54.378;18.604;2022-12-07T12:27:02;3.90;99.90
17240;DHT22;9943;54.378;18.604;2022-12-07T12:29:35;3.80;99.90
17240;DHT22;9943;54.378;18.604;2022-12-07T12:32:08;3.80;99.90
17240;DHT22;9943;54.378;18.604;2022-12-07T12:34:58;4.00;99.90
17240;DHT22;9943;54.378;18.604;2022-12-07T12:37:44;4.30;99.90
17240;DHT22;9943;54.378;18.604;2022-12-07T12:40:41;4.50;99.90
17240;DHT22;9943;54.378;18.604;2022-12-07T12:43:46;4.10;99.90
17240;DHT22;9943;54.378;18.604;2022-12-07T12:46:38;4.10;99.90
17240;DHT22;9943;54.378;18.604;2022-12-07T12:49:42;4.50;99.90
17240;DHT22;9943;54.378;18.604;2022-12-07T12:58:41;4.30;99.90
17240;DHT22;9943;54.378;18.604;2022-12-07T13:01:47;3.90;99.90
17240;DHT22;9943;54.378;18.604;2022-12-07T13:04:30;4.40;99.90
17240;DHT22;9943;54.378;18.604;2022-12-07T13:07:13;3.90;99.90
17240;DHT22;9943;54.378;18.604;2022-12-07T13:10:02;3.70;99.90
17240;DHT22;9943;54.378;18.604;2022-12-07T13:12:35;3.30;99.90
17240;DHT22;9943;54.378;18.604;2022-12-07T13:15:31;3.60;99.90
17240;DHT22;9943;54.378;18.604;2022-12-07T13:20:52;3.80;99.90
17240;DHT22;9943;54.378;18.604;2022-12-07T13:23:23;3.90;99.90
17240;DHT22;9943;54.378;18.604;2022-12-07T13:25:56;3.90;99.90
17240;DHT22;9943;54.378;18.604;2022-12-07T13:28:35;4.20;99.90
17240;DHT22;9943;54.378;18.604;2022-12-07T13:31:25;3.70;99.90
17240;DHT22;9943;54.378;18.604;2022-12-07T13:33:55;4.20;99.90
17240;DHT22;9943;54.378;18.604;2022-12-07T13:36:25;4.00;99.90
17240;DHT22;9943;54.378;18.604;2022-12-07T13:38:56;3.70;99.90
17240;DHT22;9943;54.378;18.604;2022-12-07T13:41:26;3.90;99.90
17240;DHT22;9943;54.378;18.604;2022-12-07T13:44:01;3.80;99.90
17240;DHT22;9943;54.378;18.604;2022-12-07T13:46:42;3.90;99.90
17240;DHT22;9943;54.378;18.604;2022-12-07T13:49:20;3.80;99.90
17240;DHT22;9943;54.378;18.604;2022-12-07T13:51:49;3.80;99.90
17240;DHT22;9943;54.378;18.604;2022-12-07T13:54:21;3.80;99.90
17240;DHT22;9943;54.378;18.604;2022-12-07T13:56:51;3.80;99.90
17240;DHT22;9943;54.378;18.604;2022-12-07T13:59:23;3.80;99.90
17240;DHT22;9943;54.378;18.604;2022-12-07T14:01:53;3.70;99.90
17240;DHT22;9943;54.378;18.604;2022-12-07T14:04:34;3.80;99.90
17240;DHT22;9943;54.378;18.604;2022-12-07T14:07:21;3.70;99.90
17240;DHT22;9943;54.378;18.604;2022-12-07T14:10:00;3.60;99.90
17240;DHT22;9943;54.378;18.604;2022-12-07T14:12:32;3.60;99.90
17240;DHT22;9943;54.378;18.604;2022-12-07T14:15:04;3.50;99.90
17240;DHT22;9943;54.378;18.604;2022-12-07T14:17:33;3.50;99.90
17240;DHT22;9943;54.378;18.604;2022-12-07T14:22:54;3.40;99.90
17240;DHT22;9943;54.378;18.604;2022-12-07T14:25:26;3.30;99.90
17240;DHT22;9943;54.378;18.604;2022-12-07T14:27:56;3.40;99.90
17240;DHT22;9943;54.378;18.604;2022-12-07T14:30:27;3.30;99.90
17240;DHT22;9943;54.378;18.604;2022-12-07T14:32:58;3.20;99.90
17240;DHT22;9943;54.378;18.604;2022-12-07T14:35:30;3.20;99.90
17240;DHT22;9943;54.378;18.604;2022-12-07T14:38:01;3.20;99.90
17240;DHT22;9943;54.378;18.604;2022-12-07T14:40:30;3.20;99.90
17240;DHT22;9943;54.378;18.604;2022-12-07T14:43:11;3.20;99.90
17240;DHT22;9943;54.378;18.604;2022-12-07T14:45:40;3.20;99.90
17240;DHT22;9943;54.378;18.604;2022-12-07T14:48:11;3.30;99.90
17240;DHT22;9943;54.378;18.604;2022-12-07T14:50:44;3.30;99.90
17240;DHT22;9943;54.378;18.604;2022-12-07T14:53:17;3.20;99.90
17240;DHT22;9943;54.378;18.604;2022-12-07T14:55:47;3.20;99.90
17240;DHT22;9943;54.378;18.604;2022-12-07T14:58:17;3.30;99.90
17240;DHT22;9943;54.378;18.604;2022-12-07T15:00:47;3.30;99.90
17240;DHT22;9943;54.378;18.604;2022-12-07T15:03:16;3.30;99.90
17240;DHT22;9943;54.378;18.604;2022-12-07T15:05:46;3.20;99.90
17240;DHT22;9943;54.378;18.604;2022-12-07T15:08:15;3.20;99.90
17240;DHT22;9943;54.378;18.604;2022-12-07T15:10:45;3.20;99.90
17240;DHT22;9943;54.378;18.604;2022-12-07T15:13:14;3.20;99.90
17240;DHT22;9943;54.378;18.604;2022-12-07T15:16:04;3.20;99.90
17240;DHT22;9943;54.378;18.604;2022-12-07T15:18:34;3.20;99.90
17240;DHT22;9943;54.378;18.604;2022-12-07T15:21:04;3.20;99.90
17240;DHT22;9943;54.378;18.604;2022-12-07T15:23:34;3.20;99.90
17240;DHT22;9943;54.378;18.604;2022-12-07T15:26:04;3.30;99.90
17240;DHT22;9943;54.378;18.604;2022-12-07T15:28:33;3.20;99.90
17240;DHT22;9943;54.378;18.604;2022-12-07T15:31:02;3.30;99.90
17240;DHT22;9943;54.378;18.604;2022-12-07T15:33:31;3.20;99.90
17240;DHT22;9943;54.378;18.604;2022-12-07T15:35:59;3.20;99.90
17240;DHT22;9943;54.378;18.604;2022-12-07T15:38:31;3.20;99.90
17240;DHT22;9943;54.378;18.604;2022-12-07T15:41:00;3.20;99.90
17240;DHT22;9943;54.378;18.604;2022-12-07T15:43:36;3.20;99.90
17240;DHT22;9943;54.378;18.604;2022-12-07T15:46:22;3.10;99.90
17240;DHT22;9943;54.378;18.604;2022-12-07T15:48:54;3.10;99.90
17240;DHT22;9943;54.378;18.604;2022-12-07T15:51:26;3.10;99.90
17240;DHT22;9943;54.378;18.604;2022-12-07T15:53:57;3.20;99.90
17240;DHT22;9943;54.378;18.604;2022-12-07T15:56:26;3.10;99.90
17240;DHT22;9943;54.378;18.604;2022-12-07T15:58:56;3.10;99.90
17240;DHT22;9943;54.378;18.604;2022-12-07T16:01:24;3.10;99.90
17240;DHT22;9943;54.378;18.604;2022-12-07T16:03:52;3.20;99.90
17240;DHT22;9943;54.378;18.604;2022-12-07T16:06:21;3.20;99.90
17240;DHT22;9943;54.378;18.604;2022-12-07T16:08:49;3.20;99.90
17240;DHT22;9943;54.378;18.604;2022-12-07T16:11:20;3.10;99.90
17240;DHT22;9943;54.378;18.604;2022-12-07T16:13:51;3.10;99.90
17240;DHT22;9943;54.378;18.604;2022-12-07T16:16:21;3.00;99.90
17240;DHT22;9943;54.378;18.604;2022-12-07T16:18:50;3.00;99.90
17240;DHT22;9943;54.378;18.604;2022-12-07T16:21:23;3.10;99.90
17240;DHT22;9943;54.378;18.604;2022-12-07T16:23:51;3.10;99.90
17240;DHT22;9943;54.378;18.604;2022-12-07T16:26:22;3.10;99.90
17240;DHT22;9943;54.378;18.604;2022-12-07T16:28:52;3.10;99.90
17240;DHT22;9943;54.378;18.604;2022-12-07T16:31:22;3.00;99.90
17240;DHT22;9943;54.378;18.604;2022-12-07T16:33:54;3.00;99.90
17240;DHT22;9943;54.378;18.604;2022-12-07T16:36:26;3.00;99.90
17240;DHT22;9943;54.378;18.604;2022-12-07T16:38:55;2.90;99.90
17240;DHT22;9943;54.378;18.604;2022-12-07T16:41:25;2.90;99.90
17240;DHT22;9943;54.378;18.604;2022-12-07T16:43:56;3.00;99.90
17240;DHT22;9943;54.378;18.604;2022-12-07T16:46:25;3.00;99.90